sensor_id;sensor_type;location;lat;lon;timestamp;temperature;humidity
79497;SHT31;75160;53.138;18.020;2024-02-21T00:00:18;7.34;81.80
79497;SHT31;75160;53.138;18.020;2024-02-21T00:01:41;7.34;81.72
79497;SHT31;75160;53.138;18.020;2024-02-21T00:02:42;7.35;81.80
79497;SHT31;75160;53.138;18.020;2024-02-21T00:03:44;7.36;81.80
79497;SHT31;75160;53.138;18.020;2024-02-21T00:04:46;7.37;81.80
79497;SHT31;75160;53.138;18.020;2024-02-21T00:05:48;7.39;81.80
79497;SHT31;75160;53.138;18.020;2024-02-21T00:06:50;7.41;81.80
79497;SHT31;75160;53.138;18.020;2024-02-21T00:07:51;7.43;81.85
79497;SHT31;75160;53.138;18.020;2024-02-21T00:08:53;7.44;81.90
79497;SHT31;75160;53.138;18.020;2024-02-21T00:09:55;7.45;81.88
79497;SHT31;75160;53.138;18.020;2024-02-21T00:10:57;7.47;81.80
79497;SHT31;75160;53.138;18.020;2024-02-21T00:11:59;7.48;81.75
79497;SHT31;75160;53.138;18.020;2024-02-21T00:13:02;7.48;81.70
79497;SHT31;75160;53.138;18.020;2024-02-21T00:14:04;7.49;81.72
79497;SHT31;75160;53.138;18.020;2024-02-21T00:15:07;7.49;81.72
79497;SHT31;75160;53.138;18.020;2024-02-21T00:16:09;7.52;81.70
79497;SHT31;75160;53.138;18.020;2024-02-21T00:17:12;7.53;81.63
79497;SHT31;75160;53.138;18.020;2024-02-21T00:18:14;7.55;81.68
79497;SHT31;75160;53.138;18.020;2024-02-21T00:19:16;7.55;81.65
79497;SHT31;75160;53.138;18.020;2024-02-21T00:20:17;7.55;81.55
79497;SHT31;75160;53.138;18.020;2024-02-21T00:21:19;7.57;81.60
79497;SHT31;75160;53.138;18.020;2024-02-21T00:22:21;7.57;81.53
79497;SHT31;75160;53.138;18.020;2024-02-21T00:23:23;7.57;81.53
79497;SHT31;75160;53.138;18.020;2024-02-21T00:24:25;7.57;81.53
79497;SHT31;75160;53.138;18.020;2024-02-21T00:25:26;7.57;81.60
79497;SHT31;75160;53.138;18.020;2024-02-21T00:26:29;7.59;81.65
79497;SHT31;75160;53.138;18.020;2024-02-21T00:27:30;7.57;81.60
79497;SHT31;75160;53.138;18.020;2024-02-21T00:28:33;7.60;81.60
79497;SHT31;75160;53.138;18.020;2024-02-21T00:29:35;7.61;81.65
79497;SHT31;75160;53.138;18.020;2024-02-21T00:30:37;7.61;81.60
79497;SHT31;75160;53.138;18.020;2024-02-21T00:31:40;7.60;81.50
79497;SHT31;75160;53.138;18.020;2024-02-21T00:32:41;7.61;81.50
79497;SHT31;75160;53.138;18.020;2024-02-21T00:33:43;7.62;81.50
79497;SHT31;75160;53.138;18.020;2024-02-21T00:34:45;7.61;81.40
79497;SHT31;75160;53.138;18.020;2024-02-21T00:35:47;7.61;81.40
79497;SHT31;75160;53.138;18.020;2024-02-21T00:36:48;7.60;81.45
79497;SHT31;75160;53.138;18.020;2024-02-21T00:37:51;7.62;81.43
79497;SHT31;75160;53.138;18.020;2024-02-21T00:38:53;7.64;81.47
79497;SHT31;75160;53.138;18.020;2024-02-21T00:39:55;7.63;81.40
79497;SHT31;75160;53.138;18.020;2024-02-21T00:40:57;7.64;81.40
79497;SHT31;75160;53.138;18.020;2024-02-21T00:41:59;7.63;81.43
79497;SHT31;75160;53.138;18.020;2024-02-21T00:43:00;7.64;81.43
79497;SHT31;75160;53.138;18.020;2024-02-21T00:44:02;7.63;81.40
79497;SHT31;75160;53.138;18.020;2024-02-21T00:45:07;7.64;81.50
79497;SHT31;75160;53.138;18.020;2024-02-21T00:46:09;7.64;81.50
79497;SHT31;75160;53.138;18.020;2024-02-21T00:47:11;7.64;81.50
79497;SHT31;75160;53.138;18.020;2024-02-21T00:48:13;7.64;81.50
79497;SHT31;75160;53.138;18.020;2024-02-21T00:49:15;7.64;81.50
79497;SHT31;75160;53.138;18.020;2024-02-21T00:50:17;7.65;81.43
79497;SHT31;75160;53.138;18.020;2024-02-21T00:51:19;7.66;81.40
79497;SHT31;75160;53.138;18.020;2024-02-21T00:52:21;7.66;81.40
79497;SHT31;75160;53.138;18.020;2024-02-21T00:53:22;7.69;81.35
79497;SHT31;75160;53.138;18.020;2024-02-21T00:54:24;7.68;81.30
79497;SHT31;75160;53.138;18.020;2024-02-21T00:55:26;7.69;81.30
79497;SHT31;75160;53.138;18.020;2024-02-21T00:56:28;7.70;81.35
79497;SHT31;75160;53.138;18.020;2024-02-21T00:57:31;7.70;81.40
79497;SHT31;75160;53.138;18.020;2024-02-21T00:58:33;7.72;81.40
79497;SHT31;75160;53.138;18.020;2024-02-21T00:59:35;7.71;81.35
79497;SHT31;75160;53.138;18.020;2024-02-21T01:00:37;7.71;81.40
79497;SHT31;75160;53.138;18.020;2024-02-21T01:01:39;7.71;81.35
79497;SHT31;75160;53.138;18.020;2024-02-21T01:02:43;7.70;81.30
79497;SHT31;75160;53.138;18.020;2024-02-21T01:03:45;7.69;81.30
79497;SHT31;75160;53.138;18.020;2024-02-21T01:04:47;7.70;81.32
79497;SHT31;75160;53.138;18.020;2024-02-21T01:05:49;7.66;81.32
79497;SHT31;75160;53.138;18.020;2024-02-21T01:06:50;7.68;81.30
79497;SHT31;75160;53.138;18.020;2024-02-21T01:07:53;7.67;81.30
79497;SHT31;75160;53.138;18.020;2024-02-21T01:08:55;7.64;81.22
79497;SHT31;75160;53.138;18.020;2024-02-21T01:09:56;7.64;81.30
79497;SHT31;75160;53.138;18.020;2024-02-21T01:10:58;7.64;81.40
79497;SHT31;75160;53.138;18.020;2024-02-21T01:12:00;7.62;81.32
79497;SHT31;75160;53.138;18.020;2024-02-21T01:13:02;7.61;81.38
79497;SHT31;75160;53.138;18.020;2024-02-21T01:14:04;7.63;81.35
79497;SHT31;75160;53.138;18.020;2024-02-21T01:15:06;7.61;81.32
79497;SHT31;75160;53.138;18.020;2024-02-21T01:16:09;7.62;81.40
79497;SHT31;75160;53.138;18.020;2024-02-21T01:17:11;7.61;81.38
79497;SHT31;75160;53.138;18.020;2024-02-21T01:18:14;7.61;81.40
79497;SHT31;75160;53.138;18.020;2024-02-21T01:19:16;7.61;81.47
79497;SHT31;75160;53.138;18.020;2024-02-21T01:20:18;7.64;81.45
79497;SHT31;75160;53.138;18.020;2024-02-21T01:21:19;7.62;81.32
79497;SHT31;75160;53.138;18.020;2024-02-21T01:22:21;7.63;81.30
79497;SHT31;75160;53.138;18.020;2024-02-21T01:23:23;7.60;81.30
79497;SHT31;75160;53.138;18.020;2024-02-21T01:24:25;7.59;81.32
79497;SHT31;75160;53.138;18.020;2024-02-21T01:25:27;7.59;81.35
79497;SHT31;75160;53.138;18.020;2024-02-21T01:26:29;7.60;81.38
79497;SHT31;75160;53.138;18.020;2024-02-21T01:27:31;7.61;81.40
79497;SHT31;75160;53.138;18.020;2024-02-21T01:28:32;7.60;81.40
79497;SHT31;75160;53.138;18.020;2024-02-21T01:29:34;7.59;81.35
79497;SHT31;75160;53.138;18.020;2024-02-21T01:30:36;7.58;81.30
79497;SHT31;75160;53.138;18.020;2024-02-21T01:31:38;7.60;81.30
79497;SHT31;75160;53.138;18.020;2024-02-21T01:32:40;7.57;81.30
79497;SHT31;75160;53.138;18.020;2024-02-21T01:33:42;7.59;81.25
79497;SHT31;75160;53.138;18.020;2024-02-21T01:34:44;7.57;81.20
79497;SHT31;75160;53.138;18.020;2024-02-21T01:35:46;7.58;81.25
79497;SHT31;75160;53.138;18.020;2024-02-21T01:36:48;7.56;81.25
79497;SHT31;75160;53.138;18.020;2024-02-21T01:37:50;7.56;81.30
79497;SHT31;75160;53.138;18.020;2024-02-21T01:38:53;7.57;81.32
79497;SHT31;75160;53.138;18.020;2024-02-21T01:39:54;7.60;81.38
79497;SHT31;75160;53.138;18.020;2024-02-21T01:40:56;7.59;81.38
79497;SHT31;75160;53.138;18.020;2024-02-21T01:41:58;7.60;81.32
79497;SHT31;75160;53.138;18.020;2024-02-21T01:43:00;7.59;81.30
79497;SHT31;75160;53.138;18.020;2024-02-21T01:44:01;7.60;81.28
79497;SHT31;75160;53.138;18.020;2024-02-21T01:45:03;7.59;81.22
79497;SHT31;75160;53.138;18.020;2024-02-21T01:46:05;7.59;81.22
79497;SHT31;75160;53.138;18.020;2024-02-21T01:47:10;7.59;81.22
79497;SHT31;75160;53.138;18.020;2024-02-21T01:48:16;7.59;81.28
79497;SHT31;75160;53.138;18.020;2024-02-21T01:49:19;7.60;81.30
79497;SHT31;75160;53.138;18.020;2024-02-21T01:50:23;7.57;81.20
79497;SHT31;75160;53.138;18.020;2024-02-21T01:51:25;7.56;81.20
79497;SHT31;75160;53.138;18.020;2024-02-21T01:52:29;7.54;81.20
79497;SHT31;75160;53.138;18.020;2024-02-21T01:53:38;7.53;81.22
79497;SHT31;75160;53.138;18.020;2024-02-21T01:54:46;7.53;81.30
79497;SHT31;75160;53.138;18.020;2024-02-21T01:55:49;7.50;81.32
79497;SHT31;75160;53.138;18.020;2024-02-21T01:56:51;7.51;81.38
79497;SHT31;75160;53.138;18.020;2024-02-21T01:57:53;7.49;81.40
79497;SHT31;75160;53.138;18.020;2024-02-21T01:58:55;7.51;81.45
79497;SHT31;75160;53.138;18.020;2024-02-21T01:59:57;7.50;81.43
79497;SHT31;75160;53.138;18.020;2024-02-21T02:00:59;7.50;81.38
79497;SHT31;75160;53.138;18.020;2024-02-21T02:02:01;7.49;81.32
79497;SHT31;75160;53.138;18.020;2024-02-21T02:03:03;7.50;81.30
79497;SHT31;75160;53.138;18.020;2024-02-21T02:04:05;7.47;81.30
79497;SHT31;75160;53.138;18.020;2024-02-21T02:05:08;7.48;81.30
79497;SHT31;75160;53.138;18.020;2024-02-21T02:06:11;7.48;81.30
79497;SHT31;75160;53.138;18.020;2024-02-21T02:07:14;7.47;81.32
79497;SHT31;75160;53.138;18.020;2024-02-21T02:08:16;7.47;81.38
79497;SHT31;75160;53.138;18.020;2024-02-21T02:09:20;7.46;81.30
79497;SHT31;75160;53.138;18.020;2024-02-21T02:10:22;7.45;81.38
79497;SHT31;75160;53.138;18.020;2024-02-21T02:11:24;7.44;81.40
79497;SHT31;75160;53.138;18.020;2024-02-21T02:12:26;7.44;81.40
79497;SHT31;75160;53.138;18.020;2024-02-21T02:13:28;7.44;81.40
79497;SHT31;75160;53.138;18.020;2024-02-21T02:14:30;7.44;81.38
79497;SHT31;75160;53.138;18.020;2024-02-21T02:16:47;7.41;81.40
79497;SHT31;75160;53.138;18.020;2024-02-21T02:17:49;7.38;81.38
79497;SHT31;75160;53.138;18.020;2024-02-21T02:18:51;7.37;81.40
79497;SHT31;75160;53.138;18.020;2024-02-21T02:19:53;7.36;81.43
79497;SHT31;75160;53.138;18.020;2024-02-21T02:20:54;7.36;81.43
79497;SHT31;75160;53.138;18.020;2024-02-21T02:22:00;7.36;81.45
79497;SHT31;75160;53.138;18.020;2024-02-21T02:23:23;7.36;81.53
79497;SHT31;75160;53.138;18.020;2024-02-21T02:24:31;7.34;81.50
79497;SHT31;75160;53.138;18.020;2024-02-21T02:25:33;7.34;81.50
79497;SHT31;75160;53.138;18.020;2024-02-21T02:26:34;7.34;81.57
79497;SHT31;75160;53.138;18.020;2024-02-21T02:27:42;7.33;81.60
79497;SHT31;75160;53.138;18.020;2024-02-21T02:28:46;7.34;81.63
79497;SHT31;75160;53.138;18.020;2024-02-21T02:29:48;7.33;81.57
79497;SHT31;75160;53.138;18.020;2024-02-21T02:30:50;7.34;81.60
79497;SHT31;75160;53.138;18.020;2024-02-21T02:31:52;7.35;81.70
79497;SHT31;75160;53.138;18.020;2024-02-21T02:32:54;7.35;81.65
79497;SHT31;75160;53.138;18.020;2024-02-21T02:33:56;7.34;81.60
79497;SHT31;75160;53.138;18.020;2024-02-21T02:34:58;7.34;81.55
79497;SHT31;75160;53.138;18.020;2024-02-21T02:35:59;7.33;81.50
79497;SHT31;75160;53.138;18.020;2024-02-21T02:37:01;7.32;81.57
79497;SHT31;75160;53.138;18.020;2024-02-21T02:38:03;7.33;81.60
79497;SHT31;75160;53.138;18.020;2024-02-21T02:39:06;7.33;81.60
79497;SHT31;75160;53.138;18.020;2024-02-21T02:40:08;7.32;81.60
79497;SHT31;75160;53.138;18.020;2024-02-21T02:41:10;7.32;81.60
79497;SHT31;75160;53.138;18.020;2024-02-21T02:42:12;7.33;81.60
79497;SHT31;75160;53.138;18.020;2024-02-21T02:43:14;7.34;81.60
79497;SHT31;75160;53.138;18.020;2024-02-21T02:44:16;7.34;81.60
79497;SHT31;75160;53.138;18.020;2024-02-21T02:45:18;7.37;81.60
79497;SHT31;75160;53.138;18.020;2024-02-21T02:46:20;7.36;81.60
79497;SHT31;75160;53.138;18.020;2024-02-21T02:47:21;7.39;81.60
79497;SHT31;75160;53.138;18.020;2024-02-21T02:48:23;7.40;81.57
79497;SHT31;75160;53.138;18.020;2024-02-21T02:49:25;7.41;81.55
79497;SHT31;75160;53.138;18.020;2024-02-21T02:50:27;7.43;81.60
79497;SHT31;75160;53.138;18.020;2024-02-21T02:51:29;7.43;81.55
79497;SHT31;75160;53.138;18.020;2024-02-21T02:52:31;7.44;81.50
79497;SHT31;75160;53.138;18.020;2024-02-21T02:53:33;7.45;81.50
79497;SHT31;75160;53.138;18.020;2024-02-21T02:54:34;7.45;81.50
79497;SHT31;75160;53.138;18.020;2024-02-21T02:55:36;7.46;81.50
79497;SHT31;75160;53.138;18.020;2024-02-21T02:56:38;7.45;81.47
79497;SHT31;75160;53.138;18.020;2024-02-21T02:57:40;7.46;81.40
79497;SHT31;75160;53.138;18.020;2024-02-21T02:58:44;7.45;81.32
79497;SHT31;75160;53.138;18.020;2024-02-21T02:59:52;7.45;81.32
79497;SHT31;75160;53.138;18.020;2024-02-21T03:00:54;7.45;81.43
79497;SHT31;75160;53.138;18.020;2024-02-21T03:01:56;7.45;81.50
79497;SHT31;75160;53.138;18.020;2024-02-21T03:02:58;7.45;81.43
79497;SHT31;75160;53.138;18.020;2024-02-21T03:03:59;7.46;81.47
79497;SHT31;75160;53.138;18.020;2024-02-21T03:05:01;7.47;81.57
79497;SHT31;75160;53.138;18.020;2024-02-21T03:06:16;7.49;81.50
79497;SHT31;75160;53.138;18.020;2024-02-21T03:07:18;7.50;81.40
79497;SHT31;75160;53.138;18.020;2024-02-21T03:08:21;7.49;81.35
79497;SHT31;75160;53.138;18.020;2024-02-21T03:09:24;7.49;81.40
79497;SHT31;75160;53.138;18.020;2024-02-21T03:10:25;7.49;81.38
79497;SHT31;75160;53.138;18.020;2024-02-21T03:11:27;7.49;81.43
79497;SHT31;75160;53.138;18.020;2024-02-21T03:12:30;7.47;81.40
79497;SHT31;75160;53.138;18.020;2024-02-21T03:13:32;7.47;81.47
79497;SHT31;75160;53.138;18.020;2024-02-21T03:14:34;7.47;81.45
79497;SHT31;75160;53.138;18.020;2024-02-21T03:15:36;7.48;81.50
79497;SHT31;75160;53.138;18.020;2024-02-21T03:16:38;7.47;81.50
79497;SHT31;75160;53.138;18.020;2024-02-21T03:17:40;7.49;81.47
79497;SHT31;75160;53.138;18.020;2024-02-21T03:18:43;7.48;81.50
79497;SHT31;75160;53.138;18.020;2024-02-21T03:19:45;7.49;81.50
79497;SHT31;75160;53.138;18.020;2024-02-21T03:20:47;7.50;81.55
79497;SHT31;75160;53.138;18.020;2024-02-21T03:21:49;7.50;81.55
79497;SHT31;75160;53.138;18.020;2024-02-21T03:22:51;7.53;81.50
79497;SHT31;75160;53.138;18.020;2024-02-21T03:23:52;7.52;81.50
79497;SHT31;75160;53.138;18.020;2024-02-21T03:24:54;7.53;81.50
79497;SHT31;75160;53.138;18.020;2024-02-21T03:25:56;7.53;81.50
79497;SHT31;75160;53.138;18.020;2024-02-21T03:26:58;7.54;81.50
79497;SHT31;75160;53.138;18.020;2024-02-21T03:28:00;7.55;81.50
79497;SHT31;75160;53.138;18.020;2024-02-21T03:29:03;7.57;81.43
79497;SHT31;75160;53.138;18.020;2024-02-21T03:30:05;7.56;81.45
79497;SHT31;75160;53.138;18.020;2024-02-21T03:31:07;7.57;81.47
79497;SHT31;75160;53.138;18.020;2024-02-21T03:32:10;7.57;81.43
79497;SHT31;75160;53.138;18.020;2024-02-21T03:33:11;7.59;81.47
79497;SHT31;75160;53.138;18.020;2024-02-21T03:34:14;7.57;81.43
79497;SHT31;75160;53.138;18.020;2024-02-21T03:35:16;7.57;81.43
79497;SHT31;75160;53.138;18.020;2024-02-21T03:36:17;7.57;81.50
79497;SHT31;75160;53.138;18.020;2024-02-21T03:37:20;7.57;81.50
79497;SHT31;75160;53.138;18.020;2024-02-21T03:38:21;7.57;81.45
79497;SHT31;75160;53.138;18.020;2024-02-21T03:39:23;7.57;81.43
79497;SHT31;75160;53.138;18.020;2024-02-21T03:40:25;7.55;81.50
79497;SHT31;75160;53.138;18.020;2024-02-21T03:41:27;7.55;81.55
79497;SHT31;75160;53.138;18.020;2024-02-21T03:42:29;7.55;81.57
79497;SHT31;75160;53.138;18.020;2024-02-21T03:43:32;7.54;81.50
79497;SHT31;75160;53.138;18.020;2024-02-21T03:44:34;7.54;81.50
79497;SHT31;75160;53.138;18.020;2024-02-21T03:45:36;7.53;81.55
79497;SHT31;75160;53.138;18.020;2024-02-21T03:46:38;7.52;81.60
79497;SHT31;75160;53.138;18.020;2024-02-21T03:47:39;7.53;81.70
79497;SHT31;75160;53.138;18.020;2024-02-21T03:48:42;7.52;81.68
79497;SHT31;75160;53.138;18.020;2024-02-21T03:49:44;7.52;81.70
79497;SHT31;75160;53.138;18.020;2024-02-21T03:50:45;7.52;81.63
79497;SHT31;75160;53.138;18.020;2024-02-21T03:51:47;7.53;81.60
79497;SHT31;75160;53.138;18.020;2024-02-21T03:52:49;7.53;81.60
79497;SHT31;75160;53.138;18.020;2024-02-21T03:53:51;7.53;81.63
79497;SHT31;75160;53.138;18.020;2024-02-21T03:54:53;7.52;81.63
79497;SHT31;75160;53.138;18.020;2024-02-21T03:55:56;7.53;81.60
79497;SHT31;75160;53.138;18.020;2024-02-21T03:57:01;7.52;81.60
79497;SHT31;75160;53.138;18.020;2024-02-21T03:58:03;7.52;81.65
79497;SHT31;75160;53.138;18.020;2024-02-21T03:59:06;7.52;81.68
79497;SHT31;75160;53.138;18.020;2024-02-21T04:00:10;7.50;81.65
79497;SHT31;75160;53.138;18.020;2024-02-21T04:01:14;7.49;81.70
79497;SHT31;75160;53.138;18.020;2024-02-21T04:02:17;7.49;81.70
79497;SHT31;75160;53.138;18.020;2024-02-21T04:03:19;7.47;81.72
79497;SHT31;75160;53.138;18.020;2024-02-21T04:04:21;7.49;81.72
79497;SHT31;75160;53.138;18.020;2024-02-21T04:05:23;7.48;81.72
79497;SHT31;75160;53.138;18.020;2024-02-21T04:06:25;7.47;81.78
79497;SHT31;75160;53.138;18.020;2024-02-21T04:07:26;7.49;81.80
79497;SHT31;75160;53.138;18.020;2024-02-21T04:08:28;7.47;81.75
79497;SHT31;75160;53.138;18.020;2024-02-21T04:09:30;7.47;81.80
79497;SHT31;75160;53.138;18.020;2024-02-21T04:10:32;7.47;81.82
79497;SHT31;75160;53.138;18.020;2024-02-21T04:11:33;7.47;81.88
79497;SHT31;75160;53.138;18.020;2024-02-21T04:12:35;7.49;81.85
79497;SHT31;75160;53.138;18.020;2024-02-21T04:13:37;7.48;81.80
79497;SHT31;75160;53.138;18.020;2024-02-21T04:14:39;7.47;81.80
79497;SHT31;75160;53.138;18.020;2024-02-21T04:15:41;7.48;81.80
79497;SHT31;75160;53.138;18.020;2024-02-21T04:16:42;7.48;81.85
79497;SHT31;75160;53.138;18.020;2024-02-21T04:17:44;7.49;81.80
79497;SHT31;75160;53.138;18.020;2024-02-21T04:18:47;7.48;81.80
79497;SHT31;75160;53.138;18.020;2024-02-21T04:19:49;7.48;81.80
79497;SHT31;75160;53.138;18.020;2024-02-21T04:20:51;7.47;81.80
79497;SHT31;75160;53.138;18.020;2024-02-21T04:21:53;7.45;81.85
79497;SHT31;75160;53.138;18.020;2024-02-21T04:22:55;7.45;81.80
79497;SHT31;75160;53.138;18.020;2024-02-21T04:23:57;7.46;81.85
79497;SHT31;75160;53.138;18.020;2024-02-21T04:25:00;7.45;81.85
79497;SHT31;75160;53.138;18.020;2024-02-21T04:26:02;7.44;81.90
79497;SHT31;75160;53.138;18.020;2024-02-21T04:27:04;7.45;81.97
79497;SHT31;75160;53.138;18.020;2024-02-21T04:28:05;7.45;82.00
79497;SHT31;75160;53.138;18.020;2024-02-21T04:29:08;7.46;82.00
79497;SHT31;75160;53.138;18.020;2024-02-21T04:30:09;7.47;82.00
79497;SHT31;75160;53.138;18.020;2024-02-21T04:31:12;7.47;81.97
79497;SHT31;75160;53.138;18.020;2024-02-21T04:32:14;7.49;81.95
79497;SHT31;75160;53.138;18.020;2024-02-21T04:33:16;7.48;81.93
79497;SHT31;75160;53.138;18.020;2024-02-21T04:34:18;7.49;81.88
79497;SHT31;75160;53.138;18.020;2024-02-21T04:35:19;7.48;81.90
79497;SHT31;75160;53.138;18.020;2024-02-21T04:36:22;7.49;81.90
79497;SHT31;75160;53.138;18.020;2024-02-21T04:37:23;7.48;81.93
79497;SHT31;75160;53.138;18.020;2024-02-21T04:38:26;7.49;81.90
79497;SHT31;75160;53.138;18.020;2024-02-21T04:39:28;7.49;81.90
79497;SHT31;75160;53.138;18.020;2024-02-21T04:40:30;7.50;81.90
79497;SHT31;75160;53.138;18.020;2024-02-21T04:41:32;7.49;81.90
79497;SHT31;75160;53.138;18.020;2024-02-21T04:42:33;7.49;81.90
79497;SHT31;75160;53.138;18.020;2024-02-21T04:43:35;7.50;81.90
79497;SHT31;75160;53.138;18.020;2024-02-21T04:44:37;7.49;81.93
79497;SHT31;75160;53.138;18.020;2024-02-21T04:45:39;7.48;81.82
79497;SHT31;75160;53.138;18.020;2024-02-21T04:46:44;7.47;81.80
79497;SHT31;75160;53.138;18.020;2024-02-21T04:47:45;7.47;81.90
79497;SHT31;75160;53.138;18.020;2024-02-21T04:48:50;7.47;81.90
79497;SHT31;75160;53.138;18.020;2024-02-21T04:49:53;7.45;81.90
79497;SHT31;75160;53.138;18.020;2024-02-21T04:50:54;7.46;81.90
79497;SHT31;75160;53.138;18.020;2024-02-21T04:51:57;7.45;81.93
79497;SHT31;75160;53.138;18.020;2024-02-21T04:52:59;7.45;82.00
79497;SHT31;75160;53.138;18.020;2024-02-21T04:54:01;7.46;82.00
79497;SHT31;75160;53.138;18.020;2024-02-21T04:55:02;7.44;82.00
79497;SHT31;75160;53.138;18.020;2024-02-21T04:56:05;7.45;81.97
79497;SHT31;75160;53.138;18.020;2024-02-21T04:57:07;7.45;82.00
79497;SHT31;75160;53.138;18.020;2024-02-21T04:58:09;7.44;82.00
79497;SHT31;75160;53.138;18.020;2024-02-21T04:59:10;7.45;81.93
79497;SHT31;75160;53.138;18.020;2024-02-21T05:00:12;7.43;82.00
79497;SHT31;75160;53.138;18.020;2024-02-21T05:01:15;7.44;82.03
79497;SHT31;75160;53.138;18.020;2024-02-21T05:02:17;7.45;82.00
79497;SHT31;75160;53.138;18.020;2024-02-21T05:03:20;7.44;82.00
79497;SHT31;75160;53.138;18.020;2024-02-21T05:04:23;7.43;82.00
79497;SHT31;75160;53.138;18.020;2024-02-21T05:05:24;7.43;82.03
79497;SHT31;75160;53.138;18.020;2024-02-21T05:06:26;7.42;82.07
79497;SHT31;75160;53.138;18.020;2024-02-21T05:07:28;7.44;82.07
79497;SHT31;75160;53.138;18.020;2024-02-21T05:08:30;7.43;82.10
79497;SHT31;75160;53.138;18.020;2024-02-21T05:09:31;7.45;82.10
79497;SHT31;75160;53.138;18.020;2024-02-21T05:10:33;7.45;82.10
79497;SHT31;75160;53.138;18.020;2024-02-21T05:11:35;7.45;82.07
79497;SHT31;75160;53.138;18.020;2024-02-21T05:12:39;7.46;82.00
79497;SHT31;75160;53.138;18.020;2024-02-21T05:13:41;7.46;82.10
79497;SHT31;75160;53.138;18.020;2024-02-21T05:14:42;7.48;82.07
79497;SHT31;75160;53.138;18.020;2024-02-21T05:15:44;7.49;82.00
79497;SHT31;75160;53.138;18.020;2024-02-21T05:16:46;7.47;82.10
79497;SHT31;75160;53.138;18.020;2024-02-21T05:17:48;7.47;82.00
79497;SHT31;75160;53.138;18.020;2024-02-21T05:18:49;7.49;82.00
79497;SHT31;75160;53.138;18.020;2024-02-21T05:19:51;7.51;82.05
79497;SHT31;75160;53.138;18.020;2024-02-21T05:20:53;7.50;82.03
79497;SHT31;75160;53.138;18.020;2024-02-21T05:21:55;7.49;82.00
79497;SHT31;75160;53.138;18.020;2024-02-21T05:22:57;7.48;82.00
79497;SHT31;75160;53.138;18.020;2024-02-21T05:23:59;7.48;82.05
79497;SHT31;75160;53.138;18.020;2024-02-21T05:25:01;7.47;82.00
79497;SHT31;75160;53.138;18.020;2024-02-21T05:26:03;7.48;82.00
79497;SHT31;75160;53.138;18.020;2024-02-21T05:27:05;7.49;82.10
79497;SHT31;75160;53.138;18.020;2024-02-21T05:28:06;7.51;82.05
79497;SHT31;75160;53.138;18.020;2024-02-21T05:29:08;7.48;82.07
79497;SHT31;75160;53.138;18.020;2024-02-21T05:30:10;7.49;82.07
79497;SHT31;75160;53.138;18.020;2024-02-21T05:31:13;7.49;82.07
79497;SHT31;75160;53.138;18.020;2024-02-21T05:32:15;7.48;82.00
79497;SHT31;75160;53.138;18.020;2024-02-21T05:33:17;7.46;82.05
79497;SHT31;75160;53.138;18.020;2024-02-21T05:34:22;7.45;82.07
79497;SHT31;75160;53.138;18.020;2024-02-21T05:35:25;7.47;82.10
79497;SHT31;75160;53.138;18.020;2024-02-21T05:36:29;7.46;82.10
79497;SHT31;75160;53.138;18.020;2024-02-21T05:37:31;7.46;82.10
79497;SHT31;75160;53.138;18.020;2024-02-21T05:38:34;7.46;82.13
79497;SHT31;75160;53.138;18.020;2024-02-21T05:39:36;7.46;82.13
79497;SHT31;75160;53.138;18.020;2024-02-21T05:40:38;7.45;82.20
79497;SHT31;75160;53.138;18.020;2024-02-21T05:41:40;7.45;82.20
79497;SHT31;75160;53.138;18.020;2024-02-21T05:42:42;7.45;82.18
79497;SHT31;75160;53.138;18.020;2024-02-21T05:43:43;7.45;82.20
79497;SHT31;75160;53.138;18.020;2024-02-21T05:44:45;7.46;82.20
79497;SHT31;75160;53.138;18.020;2024-02-21T05:45:47;7.44;82.25
79497;SHT31;75160;53.138;18.020;2024-02-21T05:46:50;7.44;82.28
79497;SHT31;75160;53.138;18.020;2024-02-21T05:47:52;7.43;82.30
79497;SHT31;75160;53.138;18.020;2024-02-21T05:48:54;7.43;82.25
79497;SHT31;75160;53.138;18.020;2024-02-21T05:49:55;7.41;82.30
79497;SHT31;75160;53.138;18.020;2024-02-21T05:50:57;7.43;82.30
79497;SHT31;75160;53.138;18.020;2024-02-21T05:51:59;7.43;82.30
79497;SHT31;75160;53.138;18.020;2024-02-21T05:53:01;7.43;82.30
79497;SHT31;75160;53.138;18.020;2024-02-21T05:54:03;7.41;82.30
79497;SHT31;75160;53.138;18.020;2024-02-21T05:55:06;7.42;82.35
79497;SHT31;75160;53.138;18.020;2024-02-21T05:56:10;7.43;82.38
79497;SHT31;75160;53.138;18.020;2024-02-21T05:57:13;7.44;82.40
79497;SHT31;75160;53.138;18.020;2024-02-21T05:58:15;7.43;82.32
79497;SHT31;75160;53.138;18.020;2024-02-21T05:59:17;7.44;82.30
79497;SHT31;75160;53.138;18.020;2024-02-21T06:00:18;7.44;82.40
79497;SHT31;75160;53.138;18.020;2024-02-21T06:01:21;7.45;82.40
79497;SHT31;75160;53.138;18.020;2024-02-21T06:02:22;7.45;82.40
79497;SHT31;75160;53.138;18.020;2024-02-21T06:03:24;7.44;82.32
79497;SHT31;75160;53.138;18.020;2024-02-21T06:04:26;7.46;82.32
79497;SHT31;75160;53.138;18.020;2024-02-21T06:05:28;7.46;82.30
79497;SHT31;75160;53.138;18.020;2024-02-21T06:06:29;7.46;82.32
79497;SHT31;75160;53.138;18.020;2024-02-21T06:07:32;7.46;82.35
79497;SHT31;75160;53.138;18.020;2024-02-21T06:08:33;7.46;82.40
79497;SHT31;75160;53.138;18.020;2024-02-21T06:09:35;7.45;82.40
79497;SHT31;75160;53.138;18.020;2024-02-21T06:10:37;7.46;82.40
79497;SHT31;75160;53.138;18.020;2024-02-21T06:11:39;7.46;82.43
79497;SHT31;75160;53.138;18.020;2024-02-21T06:12:40;7.47;82.40
79497;SHT31;75160;53.138;18.020;2024-02-21T06:13:42;7.48;82.38
79497;SHT31;75160;53.138;18.020;2024-02-21T06:14:44;7.48;82.38
79497;SHT31;75160;53.138;18.020;2024-02-21T06:15:46;7.49;82.40
79497;SHT31;75160;53.138;18.020;2024-02-21T06:16:48;7.49;82.40
79497;SHT31;75160;53.138;18.020;2024-02-21T06:17:53;7.49;82.40
79497;SHT31;75160;53.138;18.020;2024-02-21T06:18:54;7.51;82.40
79497;SHT31;75160;53.138;18.020;2024-02-21T06:19:56;7.49;82.40
79497;SHT31;75160;53.138;18.020;2024-02-21T06:20:58;7.50;82.38
79497;SHT31;75160;53.138;18.020;2024-02-21T06:22:00;7.50;82.35
79497;SHT31;75160;53.138;18.020;2024-02-21T06:23:02;7.51;82.38
79497;SHT31;75160;53.138;18.020;2024-02-21T06:24:04;7.51;82.40
79497;SHT31;75160;53.138;18.020;2024-02-21T06:25:06;7.51;82.40
79497;SHT31;75160;53.138;18.020;2024-02-21T06:26:08;7.52;82.40
79497;SHT31;75160;53.138;18.020;2024-02-21T06:27:10;7.51;82.40
79497;SHT31;75160;53.138;18.020;2024-02-21T06:28:12;7.52;82.32
79497;SHT31;75160;53.138;18.020;2024-02-21T06:29:14;7.52;82.40
79497;SHT31;75160;53.138;18.020;2024-02-21T06:30:16;7.53;82.40
79497;SHT31;75160;53.138;18.020;2024-02-21T06:31:18;7.54;82.40
79497;SHT31;75160;53.138;18.020;2024-02-21T06:32:19;7.55;82.40
79497;SHT31;75160;53.138;18.020;2024-02-21T06:33:21;7.55;82.30
79497;SHT31;75160;53.138;18.020;2024-02-21T06:34:26;7.55;82.30